createdAt,value
2018-05-25T00:00:05.649Z,26.95
2018-05-25T00:01:10.394Z,25.62
2018-05-25T00:02:15.062Z,27.52
2018-05-25T00:03:19.730Z,26.23
2018-05-25T00:04:24.628Z,27.55
2018-05-25T00:05:29.302Z,27.05
2018-05-25T00:06:33.882Z,28.33
2018-05-25T00:07:38.643Z,27.40
2018-05-25T00:08:43.520Z,25.12
2018-05-25T00:09:48.260Z,23.92
2018-05-25T00:10:52.844Z,26.60
2018-05-25T00:11:57.434Z,25.50
2018-05-25T00:13:01.986Z,26.58
2018-05-25T00:14:07.441Z,24.55
2018-05-25T00:15:12.108Z,24.65
2018-05-25T00:16:16.766Z,25.75
2018-05-25T00:17:22.498Z,27.75
2018-05-25T00:18:27.946Z,24.12
2018-05-25T00:19:32.759Z,25.50
2018-05-25T00:20:38.396Z,25.95
2018-05-25T00:21:43.744Z,24.52
2018-05-25T00:22:48.282Z,29.08
2018-05-25T00:23:52.878Z,23.38
2018-05-25T00:24:57.460Z,25.80
2018-05-25T00:26:02.796Z,24.58
2018-05-25T00:27:08.139Z,22.60
2018-05-25T00:28:12.861Z,26.05
2018-05-25T00:29:17.527Z,22.80
2018-05-25T00:30:22.323Z,22.50
2018-05-25T00:31:26.986Z,24.60
2018-05-25T00:32:32.305Z,22.83
2018-05-25T00:33:36.857Z,23.08
2018-05-25T00:34:41.395Z,22.45
2018-05-25T00:35:46.161Z,20.88
2018-05-25T00:36:51.641Z,20.92
2018-05-25T00:37:56.599Z,22.13
2018-05-25T00:39:02.047Z,21.87
2018-05-25T00:40:06.818Z,21.90
2018-05-25T00:41:11.506Z,22.05
2018-05-25T00:42:16.177Z,23.45
2018-05-25T00:43:20.836Z,19.75
2018-05-25T00:44:25.659Z,22.02
2018-05-25T00:45:30.366Z,20.37
2018-05-25T00:46:35.031Z,24.58
2018-05-25T00:47:39.940Z,22.52
2018-05-25T00:48:44.890Z,21.70
2018-05-25T00:49:49.682Z,22.52
2018-05-25T00:52:02.921Z,21.37
2018-05-25T00:53:08.382Z,19.30
2018-05-25T00:54:13.818Z,20.70
2018-05-25T00:55:29.943Z,21.52
2018-05-25T00:56:34.623Z,21.55
2018-05-25T00:57:40.037Z,18.75
2018-05-25T00:58:44.722Z,19.02
2018-05-25T00:59:49.690Z,18.67
2018-05-25T01:00:55.135Z,19.85
2018-05-25T01:02:00.828Z,18.95
2018-05-25T01:03:05.526Z,18.05
2018-05-25T01:04:10.202Z,18.40
2018-05-25T01:05:15.672Z,18.33
2018-05-25T01:06:20.322Z,18.67
2018-05-25T01:07:25.206Z,21.10
2018-05-25T01:08:29.854Z,20.25
2018-05-25T01:09:34.523Z,19.23
2018-05-25T01:10:39.475Z,19.20
2018-05-25T01:11:44.220Z,20.85
2018-05-25T01:12:48.897Z,16.90
2018-05-25T01:13:53.676Z,18.10
2018-05-25T01:14:59.302Z,19.83
2018-05-25T01:16:04.317Z,18.60
2018-05-25T01:17:08.964Z,19.60
2018-05-25T01:18:14.423Z,16.50
2018-05-25T01:19:19.192Z,18.05
2018-05-25T01:20:23.872Z,18.98
2018-05-25T01:21:29.098Z,17.30
2018-05-25T01:22:33.777Z,17.95
2018-05-25T01:23:39.241Z,16.12
2018-05-25T01:24:43.926Z,18.62
2018-05-25T01:25:49.311Z,16.85
2018-05-25T01:26:54.527Z,18.52
2018-05-25T01:27:59.173Z,16.27
2018-05-25T01:29:03.880Z,15.43
2018-05-25T01:30:08.571Z,18.15
2018-05-25T01:31:13.267Z,16.65
2018-05-25T01:32:18.625Z,16.55
2018-05-25T01:33:23.272Z,14.70
2018-05-25T01:34:27.965Z,15.80
2018-05-25T01:35:32.707Z,17.00
2018-05-25T01:36:37.367Z,16.25
2018-05-25T01:37:42.374Z,17.12
2018-05-25T01:38:47.850Z,17.08
2018-05-25T01:39:52.503Z,15.23
2018-05-25T01:40:57.974Z,16.42
2018-05-25T01:42:03.674Z,17.98
2018-05-25T01:43:08.593Z,15.32
2018-05-25T01:44:13.286Z,15.35
2018-05-25T01:45:17.955Z,15.75
2018-05-25T01:46:22.694Z,13.23
2018-05-25T01:47:27.715Z,14.52
2018-05-25T01:48:32.770Z,14.60
2018-05-25T01:49:37.454Z,14.65
2018-05-25T01:50:42.324Z,15.10
2018-05-25T01:51:46.989Z,16.42
2018-05-25T01:52:53.060Z,14.20
2018-05-25T01:53:58.076Z,15.45
2018-05-25T01:55:02.730Z,16.77
2018-05-25T01:56:07.626Z,16.80
2018-05-25T01:57:12.428Z,17.20
2018-05-25T01:58:17.105Z,15.98
2018-05-25T01:59:22.830Z,13.77
2018-05-25T02:00:28.295Z,16.90
2018-05-25T02:01:32.910Z,15.75
2018-05-25T02:02:37.981Z,14.57
2018-05-25T02:03:42.635Z,18.12
2018-05-25T02:04:48.090Z,16.45
2018-05-25T02:05:52.735Z,15.18
2018-05-25T02:06:57.442Z,16.23
2018-05-25T02:08:02.146Z,15.55
2018-05-25T02:09:07.539Z,16.73
2018-05-25T02:10:12.200Z,14.95
2018-05-25T02:11:16.946Z,14.73
2018-05-25T02:12:21.600Z,13.40
2018-05-25T02:13:27.205Z,14.40
2018-05-25T02:14:31.871Z,14.27
2018-05-25T02:15:36.850Z,15.30
2018-05-25T02:16:41.516Z,13.85
2018-05-25T02:17:46.180Z,16.50
2018-05-25T02:18:51.035Z,15.77
2018-05-25T02:19:56.506Z,16.48
2018-05-25T02:21:01.481Z,14.82
2018-05-25T02:22:07.179Z,13.18
2018-05-25T02:23:11.880Z,16.42
2018-05-25T02:24:16.603Z,13.50
2018-05-25T02:25:22.049Z,13.88
2018-05-25T02:26:27.026Z,15.13
2018-05-25T02:27:31.676Z,15.65
2018-05-25T02:28:36.305Z,14.23
2018-05-25T02:29:40.971Z,13.13
2018-05-25T02:30:46.790Z,15.65
2018-05-25T02:31:51.986Z,13.98
2018-05-25T02:32:56.817Z,12.73
2018-05-25T02:34:01.548Z,13.65
2018-05-25T02:35:06.287Z,12.55
2018-05-25T02:36:11.773Z,12.63
2018-05-25T02:37:16.422Z,13.27
2018-05-25T02:38:21.075Z,11.70
2018-05-25T02:39:26.133Z,12.48
2018-05-25T02:40:30.815Z,11.23
2018-05-25T02:41:35.467Z,12.73
2018-05-25T02:42:40.173Z,12.32
2018-05-25T02:43:45.185Z,13.02
2018-05-25T02:44:49.914Z,15.23
2018-05-25T02:45:54.620Z,13.65
2018-05-25T02:46:59.321Z,13.00
2018-05-25T02:48:03.954Z,13.80
2018-05-25T02:49:46.839Z,12.82
2018-05-25T02:50:51.678Z,13.68
2018-05-25T02:51:56.294Z,12.27
2018-05-25T02:53:01.754Z,14.00
2018-05-25T02:54:06.542Z,14.40
2018-05-25T02:55:12.068Z,13.43
2018-05-25T02:56:16.803Z,13.10
2018-05-25T02:57:21.535Z,14.00
2018-05-25T02:58:26.420Z,12.70
2018-05-25T02:59:31.782Z,14.48
2018-05-25T03:00:36.421Z,13.02
2018-05-25T03:01:41.069Z,11.85
2018-05-25T03:02:46.489Z,12.13
2018-05-25T03:03:51.892Z,12.25
2018-05-25T03:04:57.281Z,11.60
2018-05-25T03:06:01.951Z,12.55
2018-05-25T03:07:07.678Z,14.65
2018-05-25T03:08:12.277Z,13.27
2018-05-25T03:09:16.970Z,12.48
2018-05-25T03:10:21.571Z,13.60
2018-05-25T03:11:27.071Z,13.20
2018-05-25T03:12:31.724Z,12.85
2018-05-25T03:13:36.389Z,13.93
2018-05-25T03:14:41.843Z,12.65
2018-05-25T03:15:46.517Z,11.80
2018-05-25T03:16:51.196Z,15.50
2018-05-25T03:17:56.877Z,11.45
2018-05-25T03:19:01.551Z,15.13
2018-05-25T03:20:06.192Z,11.48
2018-05-25T03:21:10.805Z,11.93
2018-05-25T03:22:15.509Z,12.50
2018-05-25T03:23:20.404Z,11.98
2018-05-25T03:24:26.130Z,12.50
2018-05-25T03:25:30.810Z,12.50
2018-05-25T03:26:35.391Z,12.80
2018-05-25T03:27:40.795Z,12.40
2018-05-25T03:28:45.461Z,13.13
2018-05-25T03:29:50.099Z,15.88
2018-05-25T03:30:54.724Z,12.95
2018-05-25T03:31:59.336Z,14.10
2018-05-25T03:33:03.992Z,13.10
2018-05-25T03:34:08.932Z,12.68
2018-05-25T03:35:14.326Z,11.77
2018-05-25T03:36:19.097Z,11.80
2018-05-25T03:37:23.752Z,13.57
2018-05-25T03:38:28.405Z,11.68
2018-05-25T03:39:34.058Z,12.40
2018-05-25T03:40:38.659Z,13.57
2018-05-25T03:41:43.303Z,15.57
2018-05-25T03:42:47.963Z,12.05
2018-05-25T03:43:52.606Z,13.00
2018-05-25T03:44:57.538Z,12.57
2018-05-25T03:46:02.218Z,15.82
2018-05-25T03:47:06.858Z,13.50
2018-05-25T03:48:11.446Z,12.93
2018-05-25T03:49:16.083Z,11.57
2018-05-25T03:50:21.036Z,12.70
2018-05-25T03:51:25.707Z,13.20
2018-05-25T03:52:31.137Z,12.40
2018-05-25T03:53:36.542Z,12.88
2018-05-25T03:54:41.186Z,14.95
2018-05-25T03:55:46.623Z,15.15
2018-05-25T03:56:52.053Z,12.45
2018-05-25T03:57:57.469Z,12.37
2018-05-25T04:01:17.922Z,15.30
2018-05-25T04:02:22.571Z,12.55
2018-05-25T04:03:27.220Z,12.75
2018-05-25T04:04:32.867Z,11.35
2018-05-25T04:05:38.265Z,13.35
2018-05-25T04:06:43.185Z,12.27
2018-05-25T04:07:47.822Z,13.00
2018-05-25T04:08:52.466Z,12.40
2018-05-25T04:09:57.159Z,13.10
2018-05-25T04:11:02.536Z,12.25
2018-05-25T04:12:07.210Z,15.15
2018-05-25T04:13:12.622Z,12.70
2018-05-25T04:14:18.059Z,12.77
2018-05-25T04:15:23.511Z,12.57
2018-05-25T04:16:28.917Z,12.40
2018-05-25T04:17:33.815Z,12.13
2018-05-25T04:18:38.424Z,12.57
2018-05-25T04:19:43.028Z,15.18
2018-05-25T04:20:47.675Z,11.63
2018-05-25T04:21:52.194Z,13.35
2018-05-25T04:22:56.804Z,14.20
2018-05-25T04:24:01.422Z,13.23
2018-05-25T04:25:06.129Z,13.88
2018-05-25T04:26:10.753Z,12.88
2018-05-25T04:27:15.375Z,14.85
2018-05-25T04:28:20.294Z,16.85
2018-05-25T04:29:24.990Z,13.98
2018-05-25T04:30:29.629Z,12.57
2018-05-25T04:31:34.301Z,13.75
2018-05-25T04:32:39.706Z,14.00
2018-05-25T04:33:44.411Z,11.65
2018-05-25T04:34:50.311Z,13.55
2018-05-25T04:35:55.075Z,15.35
2018-05-25T04:37:00.545Z,11.65
2018-05-25T04:38:05.440Z,13.82
2018-05-25T04:39:10.212Z,13.23
2018-05-25T04:40:14.844Z,12.98
2018-05-25T04:41:19.508Z,11.48
2018-05-25T04:42:24.115Z,12.23
2018-05-25T04:43:29.042Z,13.05
2018-05-25T04:44:33.923Z,11.55
2018-05-25T04:45:38.952Z,14.73
2018-05-25T04:46:44.368Z,12.52
2018-05-25T04:47:49.008Z,11.95
2018-05-25T04:48:54.435Z,18.98
2018-05-25T04:50:00.302Z,12.88
2018-05-25T04:51:05.231Z,13.32
2018-05-25T04:52:10.026Z,12.63
2018-05-25T04:53:15.425Z,12.68
2018-05-25T04:54:20.274Z,12.37
2018-05-25T04:55:26.074Z,13.70
2018-05-25T04:56:30.699Z,11.70
2018-05-25T04:57:35.343Z,12.88
2018-05-25T04:58:40.770Z,12.27
2018-05-25T04:59:45.427Z,11.25
2018-05-25T05:00:50.394Z,12.68
2018-05-25T05:01:55.377Z,13.18
2018-05-25T05:03:00.001Z,13.48
2018-05-25T05:04:04.639Z,12.52
2018-05-25T05:05:09.539Z,14.13
2018-05-25T05:06:14.258Z,12.93
2018-05-25T05:07:18.897Z,12.02
2018-05-25T05:08:23.618Z,12.10
2018-05-25T05:09:28.257Z,12.40
2018-05-25T05:10:33.653Z,14.70
2018-05-25T05:11:40.071Z,14.50
2018-05-25T05:12:44.717Z,15.23
2018-05-25T05:13:49.512Z,13.05
2018-05-25T05:14:54.445Z,13.60
2018-05-25T05:15:59.072Z,11.45
2018-05-25T05:17:03.714Z,13.55
2018-05-25T05:18:22.917Z,15.13
2018-05-25T05:19:27.565Z,12.50
2018-05-25T05:20:32.192Z,20.35
2018-05-25T05:21:36.836Z,11.77
2018-05-25T05:22:42.276Z,12.48
2018-05-25T05:23:47.685Z,12.32
2018-05-25T05:24:52.381Z,12.05
2018-05-25T05:25:57.799Z,12.25
2018-05-25T05:27:02.415Z,11.80
2018-05-25T05:28:07.091Z,12.35
2018-05-25T05:29:11.711Z,13.13
2018-05-25T05:30:16.368Z,14.55
2018-05-25T05:31:21.314Z,14.13
2018-05-25T05:32:26.722Z,14.32
2018-05-25T05:33:31.416Z,13.07
2018-05-25T05:34:36.080Z,13.25
2018-05-25T05:35:40.845Z,13.35
2018-05-25T05:36:45.511Z,14.00
2018-05-25T05:37:50.206Z,12.00
2018-05-25T05:38:54.842Z,12.45
2018-05-25T05:39:59.481Z,13.52
2018-05-25T05:41:04.895Z,15.80
2018-05-25T05:42:09.862Z,13.55
2018-05-25T05:43:14.632Z,14.25
2018-05-25T05:44:19.328Z,14.93
2018-05-25T05:45:23.994Z,14.15
2018-05-25T05:46:28.674Z,14.05
2018-05-25T05:47:34.767Z,13.10
2018-05-25T05:48:39.381Z,13.15
2018-05-25T05:49:44.072Z,13.27
2018-05-25T05:50:49.522Z,11.32
2018-05-25T05:51:54.203Z,12.77
2018-05-25T05:52:58.867Z,13.90
2018-05-25T05:54:03.501Z,13.93
2018-05-25T05:55:08.160Z,11.20
2018-05-25T05:56:14.090Z,14.30
2018-05-25T05:57:18.766Z,13.38
2018-05-25T05:58:23.469Z,14.48
2018-05-25T05:59:33.755Z,12.85
2018-05-25T06:00:38.391Z,13.23
2018-05-25T06:01:43.071Z,15.25
2018-05-25T06:02:48.082Z,15.05
2018-05-25T06:03:52.831Z,13.57
2018-05-25T06:04:57.487Z,13.45
2018-05-25T06:06:03.271Z,17.20
2018-05-25T06:07:07.950Z,14.75
2018-05-25T06:08:13.407Z,12.20
2018-05-25T06:09:18.132Z,12.48
2018-05-25T06:10:22.784Z,13.02
2018-05-25T06:11:27.418Z,13.90
2018-05-25T06:12:32.110Z,13.65
2018-05-25T06:13:36.972Z,14.02
2018-05-25T06:14:42.732Z,15.48
2018-05-25T06:15:47.426Z,17.12
2018-05-25T06:16:52.891Z,14.23
2018-05-25T06:17:57.683Z,14.65
2018-05-25T06:19:03.094Z,15.05
2018-05-25T06:20:08.543Z,16.48
2018-05-25T06:21:14.012Z,14.38
2018-05-25T06:22:18.742Z,14.55
2018-05-25T06:23:23.519Z,15.77
2018-05-25T06:24:28.642Z,15.13
2018-05-25T06:25:33.774Z,15.30
2018-05-25T06:26:38.474Z,15.60
2018-05-25T06:27:44.081Z,16.15
2018-05-25T06:28:48.791Z,18.62
2018-05-25T06:29:53.712Z,13.35
2018-05-25T06:30:58.709Z,16.30
2018-05-25T06:32:03.398Z,15.60
2018-05-25T06:33:08.142Z,14.40
2018-05-25T06:34:12.818Z,14.90
2018-05-25T06:35:17.510Z,15.38
2018-05-25T06:36:22.176Z,14.07
2018-05-25T06:37:27.429Z,17.95
2018-05-25T06:38:32.099Z,15.43
2018-05-25T06:39:37.770Z,19.60
2018-05-25T06:40:42.432Z,19.92
2018-05-25T06:41:47.054Z,17.23
2018-05-25T06:42:51.838Z,14.70
2018-05-25T06:43:56.487Z,18.35
2018-05-25T06:45:01.140Z,19.50
2018-05-25T06:46:05.807Z,16.40
2018-05-25T06:47:10.811Z,24.67
2018-05-25T06:48:16.086Z,16.85
2018-05-25T06:49:21.566Z,14.30
2018-05-25T06:50:26.195Z,15.10
2018-05-25T06:51:30.869Z,16.92
2018-05-25T06:52:36.352Z,17.73
2018-05-25T06:53:45.852Z,14.50
2018-05-25T06:54:51.147Z,16.17
2018-05-25T06:55:57.088Z,14.02
2018-05-25T06:57:02.365Z,16.08
2018-05-25T06:58:08.241Z,20.35
2018-05-25T06:59:15.902Z,16.48
2018-05-25T07:00:21.740Z,17.75
2018-05-25T07:01:26.437Z,17.17
2018-05-25T07:02:32.511Z,22.73
2018-05-25T07:03:37.695Z,14.77
2018-05-25T07:04:43.988Z,16.00
2018-05-25T07:05:49.185Z,16.08
2018-05-25T07:06:54.193Z,15.02
2018-05-25T07:08:00.678Z,17.70
2018-05-25T07:09:06.925Z,18.20
2018-05-25T07:10:11.923Z,20.15
2018-05-25T07:11:17.816Z,17.90
2018-05-25T07:12:23.063Z,15.82
2018-05-25T07:13:28.468Z,16.25
2018-05-25T07:15:35.964Z,15.43
2018-05-25T07:16:41.296Z,26.10
2018-05-25T07:17:45.973Z,15.27
2018-05-25T07:18:51.486Z,20.20
2018-05-25T07:19:56.144Z,16.92
2018-05-25T07:21:00.804Z,17.80
2018-05-25T07:22:05.574Z,19.73
2018-05-25T07:23:10.402Z,18.83
2018-05-25T07:24:15.132Z,16.70
2018-05-25T07:25:20.224Z,17.85
2018-05-25T07:26:26.013Z,17.27
2018-05-25T07:27:30.683Z,17.75
2018-05-25T07:28:36.158Z,21.95
2018-05-25T07:29:40.862Z,18.12
2018-05-25T07:30:45.567Z,17.87
2018-05-25T07:31:50.291Z,18.90
2018-05-25T07:32:54.959Z,17.12
2018-05-25T07:33:59.725Z,18.45
2018-05-25T07:35:04.424Z,19.25
2018-05-25T07:36:09.230Z,16.85
2018-05-25T07:37:15.786Z,17.27
2018-05-25T07:38:21.284Z,17.80
2018-05-25T07:39:26.067Z,18.48
2018-05-25T07:40:30.907Z,17.27
2018-05-25T07:41:35.608Z,17.60
2018-05-25T07:42:40.713Z,19.67
2018-05-25T07:43:45.461Z,17.33
2018-05-25T07:44:50.484Z,17.30
2018-05-25T07:45:55.299Z,18.25
2018-05-25T07:47:00.759Z,18.65
2018-05-25T07:48:05.542Z,17.85
2018-05-25T07:49:10.219Z,18.42
2018-05-25T07:50:14.916Z,16.52
2018-05-25T07:51:20.428Z,19.50
2018-05-25T07:52:25.888Z,17.35
2018-05-25T07:53:30.933Z,18.05
2018-05-25T07:54:35.965Z,17.55
2018-05-25T07:55:40.703Z,17.90
2018-05-25T07:56:45.404Z,19.30
2018-05-25T07:57:50.141Z,18.45
2018-05-25T07:58:55.597Z,20.73
2018-05-25T08:00:00.386Z,26.52
2018-05-25T08:01:05.100Z,20.20
2018-05-25T08:02:18.173Z,19.52
2018-05-25T08:03:23.531Z,18.00
2018-05-25T08:04:28.232Z,20.83
2018-05-25T08:05:33.242Z,19.83
2018-05-25T08:06:38.005Z,20.58
2018-05-25T08:07:42.667Z,18.95
2018-05-25T08:08:47.403Z,19.75
2018-05-25T08:09:52.074Z,20.95
2018-05-25T08:10:58.181Z,23.02
2018-05-25T08:12:02.888Z,20.75
2018-05-25T08:13:07.576Z,18.45
2018-05-25T08:14:12.318Z,19.85
2018-05-25T08:15:17.887Z,20.05
2018-05-25T08:16:22.723Z,17.83
2018-05-25T08:17:27.445Z,21.67
2018-05-25T08:18:32.979Z,18.40
2018-05-25T08:19:37.914Z,19.73
2018-05-25T08:20:43.419Z,19.52
2018-05-25T08:21:48.617Z,19.15
2018-05-25T08:22:53.390Z,20.37
2018-05-25T08:23:58.253Z,19.30
2018-05-25T08:25:03.020Z,17.05
2018-05-25T08:26:08.597Z,17.85
2018-05-25T08:27:13.305Z,21.05
2018-05-25T08:28:19.773Z,19.58
2018-05-25T08:29:25.588Z,20.77
2018-05-25T08:30:30.654Z,18.33
2018-05-25T08:31:35.318Z,18.17
2018-05-25T08:32:41.092Z,20.20
2018-05-25T08:33:45.791Z,19.55
2018-05-25T08:34:51.505Z,22.48
2018-05-25T08:35:56.338Z,23.50
2018-05-25T08:37:01.070Z,18.45
2018-05-25T08:38:07.126Z,22.33
2018-05-25T08:39:12.585Z,18.77
2018-05-25T08:40:18.082Z,19.45
2018-05-25T08:41:23.061Z,19.95
2018-05-25T08:42:27.739Z,19.33
2018-05-25T08:43:33.524Z,17.77
2018-05-25T08:44:38.565Z,24.05
2018-05-25T08:45:43.303Z,20.23
2018-05-25T08:46:48.038Z,21.33
2018-05-25T08:47:53.555Z,18.05
2018-05-25T08:48:58.874Z,22.20
2018-05-25T08:50:03.839Z,19.17
2018-05-25T08:51:10.157Z,20.10
2018-05-25T08:52:14.947Z,19.50
2018-05-25T08:53:19.733Z,19.35
2018-05-25T08:54:24.912Z,19.08
2018-05-25T08:55:29.692Z,16.40
2018-05-25T08:56:35.126Z,16.62
2018-05-25T08:57:39.868Z,16.90
2018-05-25T08:58:45.335Z,21.60
2018-05-25T08:59:50.044Z,16.73
2018-05-25T09:00:54.807Z,19.92
2018-05-25T09:01:59.748Z,16.80
2018-05-25T09:03:05.244Z,16.85
2018-05-25T09:04:10.491Z,19.92
2018-05-25T09:05:15.141Z,22.98
2018-05-25T09:06:21.150Z,18.55
2018-05-25T09:07:25.850Z,20.42
2018-05-25T09:08:30.827Z,20.25
2018-05-25T09:09:36.349Z,19.40
2018-05-25T09:10:41.761Z,20.75
2018-05-25T09:11:46.668Z,18.85
2018-05-25T09:12:51.369Z,18.95
2018-05-25T09:13:56.041Z,16.65
2018-05-25T09:15:01.537Z,24.12
2018-05-25T09:16:06.498Z,19.33
2018-05-25T09:17:11.727Z,19.05
2018-05-25T09:18:17.299Z,18.92
2018-05-25T09:19:22.268Z,22.58
2018-05-25T09:20:26.969Z,21.23
2018-05-25T09:21:32.162Z,20.30
2018-05-25T09:22:37.128Z,19.65
2018-05-25T09:23:41.965Z,19.15
2018-05-25T09:24:47.425Z,22.60
2018-05-25T09:25:52.407Z,27.58
2018-05-25T09:26:57.915Z,20.73
2018-05-25T09:28:02.569Z,20.52
2018-05-25T09:29:08.026Z,20.42
2018-05-25T09:30:13.451Z,20.67
2018-05-25T09:31:19.073Z,19.08
2018-05-25T09:32:23.815Z,22.33
2018-05-25T09:33:28.591Z,19.90
2018-05-25T09:34:33.284Z,20.75
2018-05-25T09:35:37.973Z,21.67
2018-05-25T09:36:42.653Z,21.83
2018-05-25T09:37:47.452Z,21.98
2018-05-25T09:38:52.135Z,20.77
2018-05-25T09:39:57.091Z,21.60
2018-05-25T09:41:01.996Z,19.73
2018-05-25T09:42:06.729Z,20.45
2018-05-25T09:43:11.513Z,21.12
2018-05-25T09:44:16.195Z,21.98
2018-05-25T09:45:21.727Z,19.12
2018-05-25T09:46:27.156Z,21.92
2018-05-25T09:47:31.855Z,17.60
2018-05-25T09:48:36.569Z,18.83
2018-05-25T09:49:41.227Z,24.45
2018-05-25T09:50:46.657Z,17.98
2018-05-25T09:51:52.486Z,17.05
2018-05-25T09:52:57.924Z,21.85
2018-05-25T09:54:03.639Z,18.95
2018-05-25T09:55:08.324Z,22.62
2018-05-25T09:56:13.076Z,20.95
2018-05-25T09:57:17.906Z,20.83
2018-05-25T09:58:22.594Z,19.95
2018-05-25T09:59:27.347Z,20.98
2018-05-25T10:00:33.385Z,19.55
2018-05-25T10:01:38.207Z,19.65
2018-05-25T10:02:42.875Z,20.98
2018-05-25T10:03:47.687Z,16.87
2018-05-25T10:04:52.734Z,18.05
2018-05-25T10:05:57.403Z,19.90
2018-05-25T10:07:02.892Z,21.30
2018-05-25T10:08:07.831Z,23.67
2018-05-25T10:09:12.678Z,22.40
2018-05-25T10:10:18.265Z,20.02
2018-05-25T10:11:22.945Z,19.50
2018-05-25T10:12:27.723Z,19.98
2018-05-25T10:13:32.659Z,19.80
2018-05-25T10:14:37.378Z,18.73
2018-05-25T10:15:42.934Z,22.02
2018-05-25T10:16:48.389Z,19.12
2018-05-25T10:17:54.184Z,20.20
2018-05-25T10:18:58.991Z,20.20
2018-05-25T10:20:04.029Z,19.50
2018-05-25T10:21:09.642Z,17.52
2018-05-25T10:22:14.373Z,18.20
2018-05-25T10:23:19.281Z,27.60
2018-05-25T10:24:24.023Z,19.37
2018-05-25T10:25:28.750Z,18.77
2018-05-25T10:26:35.191Z,20.10
2018-05-25T10:27:40.143Z,17.80
2018-05-25T10:28:45.006Z,19.05
2018-05-25T10:29:49.882Z,19.27
2018-05-25T10:30:54.678Z,22.42
2018-05-25T10:31:59.425Z,18.45
2018-05-25T10:33:04.324Z,19.27
2018-05-25T10:34:09.018Z,20.75
2018-05-25T10:35:13.755Z,17.73
2018-05-25T10:36:18.923Z,20.37
2018-05-25T10:37:24.035Z,18.20
2018-05-25T10:38:28.749Z,18.10
2018-05-25T10:39:33.529Z,17.62
2018-05-25T10:40:38.205Z,18.62
2018-05-25T10:41:43.293Z,17.48
2018-05-25T10:42:48.930Z,16.75
2018-05-25T10:43:53.698Z,18.85
2018-05-25T10:44:58.509Z,17.83
2018-05-25T10:46:04.102Z,18.37
2018-05-25T10:47:09.109Z,16.23
2018-05-25T10:48:13.972Z,15.68
2018-05-25T10:49:18.758Z,17.95
2018-05-25T10:50:23.517Z,21.20
2018-05-25T10:51:29.037Z,20.73
2018-05-25T10:52:34.073Z,19.15
2018-05-25T10:53:39.637Z,20.83
2018-05-25T10:54:45.147Z,19.52
2018-05-25T10:55:50.939Z,17.15
2018-05-25T10:56:55.801Z,19.27
2018-05-25T10:58:01.530Z,20.92
2018-05-25T10:59:06.293Z,17.27
2018-05-25T11:00:11.505Z,19.45
2018-05-25T11:01:17.203Z,17.90
2018-05-25T11:02:21.937Z,17.35
2018-05-25T11:03:27.085Z,19.25
2018-05-25T11:04:32.038Z,17.37
2018-05-25T11:05:37.038Z,19.05
2018-05-25T11:06:42.492Z,16.48
2018-05-25T11:07:47.232Z,17.80
2018-05-25T11:08:52.416Z,19.20
2018-05-25T11:09:57.957Z,15.98
2018-05-25T11:11:03.191Z,19.75
2018-05-25T11:12:08.402Z,18.55
2018-05-25T11:13:13.161Z,18.55
2018-05-25T11:14:18.134Z,19.65
2018-05-25T11:15:23.563Z,19.23
2018-05-25T11:16:28.343Z,17.37
2018-05-25T11:17:33.098Z,16.62
2018-05-25T11:18:37.852Z,23.67
2018-05-25T11:19:42.940Z,16.60
2018-05-25T11:20:47.660Z,18.27
2018-05-25T11:21:53.261Z,16.02
2018-05-25T11:22:57.973Z,17.25
2018-05-25T11:24:02.786Z,16.50
2018-05-25T11:25:07.546Z,17.08
2018-05-25T11:26:12.356Z,16.15
2018-05-25T11:27:17.233Z,20.30
2018-05-25T11:28:22.473Z,20.77
2018-05-25T11:29:53.039Z,16.37
2018-05-25T11:30:58.645Z,15.27
2018-05-25T11:32:03.392Z,15.13
2018-05-25T11:33:08.116Z,16.17
2018-05-25T11:34:12.937Z,15.05
2018-05-25T11:35:18.655Z,16.62
2018-05-25T11:36:23.374Z,20.88
2018-05-25T11:37:28.423Z,15.05
2018-05-25T11:38:33.228Z,15.88
2018-05-25T11:39:37.986Z,15.30
2018-05-25T11:40:42.850Z,16.17
2018-05-25T11:41:47.988Z,16.58
2018-05-25T11:42:52.747Z,16.90
2018-05-25T11:43:57.469Z,20.25
2018-05-25T11:45:02.243Z,14.82
2018-05-25T11:46:07.151Z,17.42
2018-05-25T11:47:11.848Z,14.98
2018-05-25T11:48:16.663Z,17.42
2018-05-25T11:49:21.337Z,16.00
2018-05-25T11:50:26.887Z,20.62
2018-05-25T11:51:31.664Z,15.10
2018-05-25T11:52:36.327Z,17.15
2018-05-25T11:53:41.238Z,14.77
2018-05-25T11:54:46.179Z,15.45
2018-05-25T11:55:50.874Z,17.48
2018-05-25T11:56:56.308Z,16.70
2018-05-25T11:58:01.757Z,21.80
2018-05-25T11:59:06.749Z,16.50
2018-05-25T12:00:12.377Z,18.77
2018-05-25T12:01:17.046Z,18.25
2018-05-25T12:02:21.867Z,20.27
2018-05-25T12:03:27.375Z,15.45
2018-05-25T12:04:32.876Z,20.62
2018-05-25T12:05:39.669Z,14.90
2018-05-25T12:06:45.436Z,20.73
2018-05-25T12:07:50.103Z,15.05
2018-05-25T12:08:54.782Z,17.25
2018-05-25T12:10:00.581Z,16.90
2018-05-25T12:11:05.280Z,16.83
2018-05-25T12:12:09.959Z,15.60
2018-05-25T12:13:14.865Z,20.15
2018-05-25T12:14:19.519Z,15.93
2018-05-25T12:15:24.268Z,16.55
2018-05-25T12:16:28.937Z,18.52
2018-05-25T12:17:33.618Z,17.52
2018-05-25T12:18:39.050Z,17.40
2018-05-25T12:19:44.484Z,19.77
2018-05-25T12:20:49.196Z,18.52
2018-05-25T12:21:54.737Z,16.23
2018-05-25T12:22:59.474Z,17.95
2018-05-25T12:24:04.184Z,21.98
2018-05-25T12:25:08.927Z,18.25
2018-05-25T12:26:14.978Z,15.68
2018-05-25T12:27:19.719Z,15.43
2018-05-25T12:28:24.382Z,16.80
2018-05-25T12:29:29.371Z,14.50
2018-05-25T12:30:34.029Z,15.90
2018-05-25T12:31:38.748Z,16.65
2018-05-25T12:32:43.754Z,15.07
2018-05-25T12:33:48.592Z,17.30
2018-05-25T12:34:53.279Z,13.90
2018-05-25T12:35:58.740Z,15.50
2018-05-25T12:37:03.447Z,14.82
2018-05-25T12:38:08.203Z,16.02
2018-05-25T12:39:12.946Z,17.52
2018-05-25T12:40:17.671Z,15.18
2018-05-25T12:41:23.346Z,16.45
2018-05-25T12:42:28.378Z,15.57
2018-05-25T12:43:33.067Z,16.55
2018-05-25T12:44:47.315Z,15.13
2018-05-25T12:45:52.177Z,17.17
2018-05-25T12:46:57.028Z,16.17
2018-05-25T12:48:03.127Z,15.35
2018-05-25T12:49:07.892Z,19.87
2018-05-25T12:50:13.345Z,17.17
2018-05-25T12:51:18.857Z,17.42
2018-05-25T12:52:23.520Z,17.08
2018-05-25T12:53:28.778Z,15.05
2018-05-25T12:54:33.759Z,15.90
2018-05-25T12:55:38.715Z,16.45
2018-05-25T12:56:43.450Z,16.70
2018-05-25T12:57:48.965Z,15.48
2018-05-25T12:58:54.399Z,15.60
2018-05-25T12:59:59.074Z,15.00
2018-05-25T13:01:04.690Z,15.07
2018-05-25T13:02:09.521Z,16.02
2018-05-25T13:03:15.268Z,15.90
2018-05-25T13:04:21.169Z,16.00
2018-05-25T13:05:25.904Z,15.02
2018-05-25T13:06:31.381Z,16.62
2018-05-25T13:07:36.376Z,14.25
2018-05-25T13:08:41.573Z,15.20
2018-05-25T13:09:46.531Z,15.48
2018-05-25T13:10:52.068Z,14.70
2018-05-25T13:11:57.508Z,14.73
2018-05-25T13:13:02.313Z,14.98
2018-05-25T13:14:07.778Z,14.00
2018-05-25T13:15:13.253Z,13.02
2018-05-25T13:16:18.724Z,14.77
2018-05-25T13:17:24.223Z,13.65
2018-05-25T13:18:29.757Z,15.23
2018-05-25T13:19:34.524Z,14.98
2018-05-25T13:20:40.240Z,16.37
2018-05-25T13:21:45.012Z,16.73
2018-05-25T13:22:49.786Z,15.77
2018-05-25T13:23:55.255Z,18.25
2018-05-25T13:25:00.034Z,16.90
2018-05-25T13:26:05.512Z,21.08
2018-05-25T13:27:10.201Z,15.57
2018-05-25T13:28:15.656Z,15.13
2018-05-25T13:29:20.380Z,15.32
2018-05-25T13:30:25.143Z,15.70
2018-05-25T13:31:29.884Z,16.80
2018-05-25T13:32:35.322Z,14.80
2018-05-25T13:33:40.760Z,14.57
2018-05-25T13:34:46.219Z,16.25
2018-05-25T13:35:50.862Z,16.87
2018-05-25T13:36:55.524Z,14.70
2018-05-25T13:38:01.498Z,15.05
2018-05-25T13:39:07.532Z,14.35
2018-05-25T13:40:12.564Z,14.07
2018-05-25T13:41:17.234Z,15.60
2018-05-25T13:42:21.937Z,14.75
2018-05-25T13:43:26.660Z,14.18
2018-05-25T13:44:31.555Z,16.10
2018-05-25T13:45:36.223Z,15.52
2018-05-25T13:46:41.754Z,17.12
2018-05-25T13:47:46.468Z,15.30
2018-05-25T13:48:52.008Z,15.02
2018-05-25T13:49:57.651Z,14.32
2018-05-25T13:51:03.462Z,17.10
2018-05-25T13:52:08.194Z,14.65
2018-05-25T13:53:13.670Z,15.25
2018-05-25T13:54:18.425Z,19.92
2018-05-25T13:55:23.130Z,16.90
2018-05-25T13:56:27.831Z,14.40
2018-05-25T13:57:32.527Z,15.95
2018-05-25T13:58:37.256Z,14.07
2018-05-25T13:59:41.974Z,15.23
2018-05-25T14:00:46.744Z,19.73
2018-05-25T14:01:52.165Z,16.95
2018-05-25T14:02:57.635Z,19.83